sensor_id;sensor_type;location;lat;lon;timestamp;temperature;humidity
20091;DHT22;10205;49.678;6.560;2023-03-31T00:02:14;15.90;61.60
20091;DHT22;10205;49.678;6.560;2023-03-31T00:04:42;15.90;61.70
20091;DHT22;10205;49.678;6.560;2023-03-31T00:07:11;15.90;62.50
20091;DHT22;10205;49.678;6.560;2023-03-31T00:09:40;15.90;61.70
20091;DHT22;10205;49.678;6.560;2023-03-31T00:12:10;15.90;61.70
20091;DHT22;10205;49.678;6.560;2023-03-31T00:14:39;15.80;62.20
20091;DHT22;10205;49.678;6.560;2023-03-31T00:17:06;15.80;62.10
20091;DHT22;10205;49.678;6.560;2023-03-31T00:19:35;15.80;61.90
20091;DHT22;10205;49.678;6.560;2023-03-31T00:22:04;15.80;62.00
20091;DHT22;10205;49.678;6.560;2023-03-31T00:24:32;15.80;62.00
20091;DHT22;10205;49.678;6.560;2023-03-31T00:27:00;15.70;62.00
20091;DHT22;10205;49.678;6.560;2023-03-31T00:29:29;15.70;62.10
20091;DHT22;10205;49.678;6.560;2023-03-31T00:31:58;15.70;62.20
20091;DHT22;10205;49.678;6.560;2023-03-31T00:34:25;15.70;62.30
20091;DHT22;10205;49.678;6.560;2023-03-31T00:36:53;15.70;62.30
20091;DHT22;10205;49.678;6.560;2023-03-31T00:39:22;15.70;62.30
20091;DHT22;10205;49.678;6.560;2023-03-31T00:41:52;15.70;62.30
20091;DHT22;10205;49.678;6.560;2023-03-31T00:44:20;15.70;62.40
20091;DHT22;10205;49.678;6.560;2023-03-31T00:46:52;15.70;62.30
20091;DHT22;10205;49.678;6.560;2023-03-31T00:49:26;15.70;62.30
20091;DHT22;10205;49.678;6.560;2023-03-31T00:52:00;15.70;62.30
20091;DHT22;10205;49.678;6.560;2023-03-31T00:54:30;15.70;62.70
20091;DHT22;10205;49.678;6.560;2023-03-31T00:56:59;15.70;62.30
20091;DHT22;10205;49.678;6.560;2023-03-31T00:59:30;15.70;62.30
20091;DHT22;10205;49.678;6.560;2023-03-31T01:01:59;15.70;62.50
20091;DHT22;10205;49.678;6.560;2023-03-31T01:04:32;15.70;62.30
20091;DHT22;10205;49.678;6.560;2023-03-31T01:07:09;15.70;62.50
20091;DHT22;10205;49.678;6.560;2023-03-31T01:09:44;15.70;62.40
20091;DHT22;10205;49.678;6.560;2023-03-31T01:12:14;15.60;62.30
20091;DHT22;10205;49.678;6.560;2023-03-31T01:14:43;15.70;62.40
20091;DHT22;10205;49.678;6.560;2023-03-31T01:17:10;15.60;62.30
20091;DHT22;10205;49.678;6.560;2023-03-31T01:20:03;15.60;62.40
20091;DHT22;10205;49.678;6.560;2023-03-31T01:23:14;15.60;62.80
20091;DHT22;10205;49.678;6.560;2023-03-31T01:36:02;15.60;62.70
20091;DHT22;10205;49.678;6.560;2023-03-31T01:42:06;15.50;62.90
20091;DHT22;10205;49.678;6.560;2023-03-31T01:44:42;15.60;62.70
20091;DHT22;10205;49.678;6.560;2023-03-31T01:47:17;15.50;62.60
20091;DHT22;10205;49.678;6.560;2023-03-31T01:49:54;15.50;62.80
20091;DHT22;10205;49.678;6.560;2023-03-31T01:52:31;15.50;63.10
20091;DHT22;10205;49.678;6.560;2023-03-31T01:55:09;15.50;62.80
20091;DHT22;10205;49.678;6.560;2023-03-31T01:57:47;15.50;62.90
20091;DHT22;10205;49.678;6.560;2023-03-31T02:00:22;15.50;63.20
20091;DHT22;10205;49.678;6.560;2023-03-31T02:02:57;15.50;62.90
20091;DHT22;10205;49.678;6.560;2023-03-31T02:05:31;15.40;63.00
20091;DHT22;10205;49.678;6.560;2023-03-31T02:08:08;15.50;63.00
20091;DHT22;10205;49.678;6.560;2023-03-31T02:10:40;15.40;63.10
20091;DHT22;10205;49.678;6.560;2023-03-31T02:13:11;15.40;62.90
20091;DHT22;10205;49.678;6.560;2023-03-31T02:15:43;15.40;62.80
20091;DHT22;10205;49.678;6.560;2023-03-31T02:18:16;15.40;62.90
20091;DHT22;10205;49.678;6.560;2023-03-31T02:20:48;15.40;62.80
20091;DHT22;10205;49.678;6.560;2023-03-31T02:23:20;15.40;63.00
20091;DHT22;10205;49.678;6.560;2023-03-31T02:25:52;15.40;63.20
20091;DHT22;10205;49.678;6.560;2023-03-31T02:28:27;15.40;63.10
20091;DHT22;10205;49.678;6.560;2023-03-31T02:31:05;15.30;63.20
20091;DHT22;10205;49.678;6.560;2023-03-31T02:33:38;15.30;63.40
20091;DHT22;10205;49.678;6.560;2023-03-31T02:36:06;15.30;63.20
20091;DHT22;10205;49.678;6.560;2023-03-31T02:38:37;15.30;63.00
20091;DHT22;10205;49.678;6.560;2023-03-31T02:41:09;15.30;63.20
20091;DHT22;10205;49.678;6.560;2023-03-31T02:43:37;15.30;63.10
20091;DHT22;10205;49.678;6.560;2023-03-31T02:46:04;15.30;63.00
20091;DHT22;10205;49.678;6.560;2023-03-31T02:48:34;15.30;63.00
20091;DHT22;10205;49.678;6.560;2023-03-31T02:58:15;15.20;63.60
20091;DHT22;10205;49.678;6.560;2023-03-31T03:01:18;15.30;63.30
20091;DHT22;10205;49.678;6.560;2023-03-31T03:04:05;15.20;62.90
20091;DHT22;10205;49.678;6.560;2023-03-31T03:06:49;15.20;63.30
20091;DHT22;10205;49.678;6.560;2023-03-31T03:09:33;15.20;63.40
20091;DHT22;10205;49.678;6.560;2023-03-31T03:12:12;15.20;63.40
20091;DHT22;10205;49.678;6.560;2023-03-31T03:14:46;15.20;63.60
20091;DHT22;10205;49.678;6.560;2023-03-31T03:17:24;15.20;63.40
20091;DHT22;10205;49.678;6.560;2023-03-31T03:19:55;15.10;63.40
20091;DHT22;10205;49.678;6.560;2023-03-31T03:22:26;15.10;63.30
20091;DHT22;10205;49.678;6.560;2023-03-31T03:24:54;15.10;63.50
20091;DHT22;10205;49.678;6.560;2023-03-31T03:27:21;15.10;63.50
20091;DHT22;10205;49.678;6.560;2023-03-31T03:29:48;15.10;63.70
20091;DHT22;10205;49.678;6.560;2023-03-31T03:32:15;15.10;63.80
20091;DHT22;10205;49.678;6.560;2023-03-31T03:34:44;15.10;63.70
20091;DHT22;10205;49.678;6.560;2023-03-31T03:37:11;15.10;63.60
20091;DHT22;10205;49.678;6.560;2023-03-31T03:39:38;15.10;63.80
20091;DHT22;10205;49.678;6.560;2023-03-31T03:42:05;15.10;63.60
20091;DHT22;10205;49.678;6.560;2023-03-31T03:44:32;15.10;63.50
20091;DHT22;10205;49.678;6.560;2023-03-31T03:46:59;15.10;63.50
20091;DHT22;10205;49.678;6.560;2023-03-31T03:49:26;15.10;63.50
20091;DHT22;10205;49.678;6.560;2023-03-31T03:51:55;15.10;63.50
20091;DHT22;10205;49.678;6.560;2023-03-31T03:54:23;15.10;63.60
20091;DHT22;10205;49.678;6.560;2023-03-31T03:56:50;15.10;63.50
20091;DHT22;10205;49.678;6.560;2023-03-31T03:59:17;15.00;63.60
20091;DHT22;10205;49.678;6.560;2023-03-31T04:01:44;15.00;63.50
20091;DHT22;10205;49.678;6.560;2023-03-31T04:04:11;15.00;63.50
20091;DHT22;10205;49.678;6.560;2023-03-31T04:06:38;15.10;63.60
20091;DHT22;10205;49.678;6.560;2023-03-31T04:09:07;15.00;63.40
20091;DHT22;10205;49.678;6.560;2023-03-31T04:11:34;15.00;63.50
20091;DHT22;10205;49.678;6.560;2023-03-31T04:14:01;15.00;63.60
20091;DHT22;10205;49.678;6.560;2023-03-31T04:16:28;15.00;64.00
20091;DHT22;10205;49.678;6.560;2023-03-31T04:18:56;15.00;64.00
20091;DHT22;10205;49.678;6.560;2023-03-31T04:21:24;15.00;63.90
20091;DHT22;10205;49.678;6.560;2023-03-31T04:23:52;15.00;63.70
20091;DHT22;10205;49.678;6.560;2023-03-31T04:26:29;15.00;64.00
20091;DHT22;10205;49.678;6.560;2023-03-31T04:29:04;15.00;63.90
20091;DHT22;10205;49.678;6.560;2023-03-31T04:31:32;15.00;64.00
20091;DHT22;10205;49.678;6.560;2023-03-31T04:34:03;15.00;63.90
20091;DHT22;10205;49.678;6.560;2023-03-31T04:36:31;14.90;63.70
20091;DHT22;10205;49.678;6.560;2023-03-31T04:38:59;14.90;63.80
20091;DHT22;10205;49.678;6.560;2023-03-31T04:41:27;14.90;63.80
20091;DHT22;10205;49.678;6.560;2023-03-31T04:43:54;14.90;64.70
20091;DHT22;10205;49.678;6.560;2023-03-31T04:46:21;14.90;64.00
20091;DHT22;10205;49.678;6.560;2023-03-31T04:48:49;14.90;63.80
20091;DHT22;10205;49.678;6.560;2023-03-31T04:51:16;14.90;64.10
20091;DHT22;10205;49.678;6.560;2023-03-31T04:53:44;14.90;64.40
20091;DHT22;10205;49.678;6.560;2023-03-31T04:56:12;14.90;64.40
20091;DHT22;10205;49.678;6.560;2023-03-31T04:58:40;14.90;64.40
20091;DHT22;10205;49.678;6.560;2023-03-31T05:01:09;14.90;64.50
20091;DHT22;10205;49.678;6.560;2023-03-31T05:03:38;14.90;64.50
20091;DHT22;10205;49.678;6.560;2023-03-31T05:06:06;14.80;64.30
20091;DHT22;10205;49.678;6.560;2023-03-31T05:08:33;14.80;64.20
20091;DHT22;10205;49.678;6.560;2023-03-31T05:11:02;14.80;64.30
20091;DHT22;10205;49.678;6.560;2023-03-31T05:13:30;14.80;64.20
20091;DHT22;10205;49.678;6.560;2023-03-31T05:16:05;14.80;64.10
20091;DHT22;10205;49.678;6.560;2023-03-31T05:18:33;14.80;64.20
20091;DHT22;10205;49.678;6.560;2023-03-31T05:21:11;14.80;64.30
20091;DHT22;10205;49.678;6.560;2023-03-31T05:23:39;14.80;64.50
20091;DHT22;10205;49.678;6.560;2023-03-31T05:26:07;14.80;64.90
20091;DHT22;10205;49.678;6.560;2023-03-31T05:28:34;14.80;64.90
20091;DHT22;10205;49.678;6.560;2023-03-31T05:31:04;14.80;65.00
20091;DHT22;10205;49.678;6.560;2023-03-31T05:33:32;14.80;65.60
20091;DHT22;10205;49.678;6.560;2023-03-31T05:36:05;14.80;65.50
20091;DHT22;10205;49.678;6.560;2023-03-31T05:38:33;14.70;65.10
20091;DHT22;10205;49.678;6.560;2023-03-31T05:41:00;14.70;65.40
20091;DHT22;10205;49.678;6.560;2023-03-31T05:43:27;14.70;65.40
20091;DHT22;10205;49.678;6.560;2023-03-31T05:45:54;14.70;65.40
20091;DHT22;10205;49.678;6.560;2023-03-31T05:48:25;14.70;65.70
20091;DHT22;10205;49.678;6.560;2023-03-31T05:50:55;14.70;65.70
20091;DHT22;10205;49.678;6.560;2023-03-31T05:53:23;14.70;65.90
20091;DHT22;10205;49.678;6.560;2023-03-31T05:55:55;14.70;65.90
20091;DHT22;10205;49.678;6.560;2023-03-31T05:58:24;14.70;66.10
20091;DHT22;10205;49.678;6.560;2023-03-31T06:00:59;14.70;65.90
20091;DHT22;10205;49.678;6.560;2023-03-31T06:03:31;14.70;66.00
20091;DHT22;10205;49.678;6.560;2023-03-31T06:05:58;14.60;65.70
20091;DHT22;10205;49.678;6.560;2023-03-31T06:08:26;14.60;65.80
20091;DHT22;10205;49.678;6.560;2023-03-31T06:10:53;14.60;65.80
20091;DHT22;10205;49.678;6.560;2023-03-31T06:13:21;14.60;66.00
20091;DHT22;10205;49.678;6.560;2023-03-31T06:15:54;14.60;66.10
20091;DHT22;10205;49.678;6.560;2023-03-31T06:18:22;14.60;66.50
20091;DHT22;10205;49.678;6.560;2023-03-31T06:20:51;14.60;66.10
20091;DHT22;10205;49.678;6.560;2023-03-31T06:23:18;14.60;65.80
20091;DHT22;10205;49.678;6.560;2023-03-31T06:25:45;14.60;65.80
20091;DHT22;10205;49.678;6.560;2023-03-31T06:28:13;14.60;65.90
20091;DHT22;10205;49.678;6.560;2023-03-31T06:30:40;14.60;65.80
20091;DHT22;10205;49.678;6.560;2023-03-31T06:33:07;14.60;66.20
20091;DHT22;10205;49.678;6.560;2023-03-31T06:35:37;14.60;66.10
20091;DHT22;10205;49.678;6.560;2023-03-31T06:38:06;14.60;66.20
20091;DHT22;10205;49.678;6.560;2023-03-31T06:40:33;14.60;66.30
20091;DHT22;10205;49.678;6.560;2023-03-31T06:43:00;14.60;66.20
20091;DHT22;10205;49.678;6.560;2023-03-31T06:45:27;14.60;66.20
20091;DHT22;10205;49.678;6.560;2023-03-31T06:47:54;14.50;66.10
20091;DHT22;10205;49.678;6.560;2023-03-31T06:50:21;14.50;65.90
20091;DHT22;10205;49.678;6.560;2023-03-31T06:52:49;14.50;66.10
20091;DHT22;10205;49.678;6.560;2023-03-31T06:55:19;14.50;66.10
20091;DHT22;10205;49.678;6.560;2023-03-31T06:57:46;14.50;66.20
20091;DHT22;10205;49.678;6.560;2023-03-31T07:00:14;14.50;67.10
20091;DHT22;10205;49.678;6.560;2023-03-31T07:02:43;14.50;66.90
20091;DHT22;10205;49.678;6.560;2023-03-31T07:05:10;14.50;66.90
20091;DHT22;10205;49.678;6.560;2023-03-31T07:07:37;14.50;67.00
20091;DHT22;10205;49.678;6.560;2023-03-31T07:10:05;14.50;67.50
20091;DHT22;10205;49.678;6.560;2023-03-31T07:12:34;14.50;67.90
20091;DHT22;10205;49.678;6.560;2023-03-31T07:15:01;14.50;67.90
20091;DHT22;10205;49.678;6.560;2023-03-31T07:17:29;14.50;68.20
20091;DHT22;10205;49.678;6.560;2023-03-31T07:19:56;14.50;68.40
20091;DHT22;10205;49.678;6.560;2023-03-31T07:22:23;14.50;68.60
20091;DHT22;10205;49.678;6.560;2023-03-31T07:24:50;14.50;69.60
20091;DHT22;10205;49.678;6.560;2023-03-31T07:27:17;14.50;68.70
20091;DHT22;10205;49.678;6.560;2023-03-31T07:29:46;14.50;68.70
20091;DHT22;10205;49.678;6.560;2023-03-31T07:32:14;14.50;68.80
20091;DHT22;10205;49.678;6.560;2023-03-31T07:34:44;14.60;68.70
20091;DHT22;10205;49.678;6.560;2023-03-31T07:37:11;14.60;68.60
20091;DHT22;10205;49.678;6.560;2023-03-31T07:39:38;14.60;68.60
20091;DHT22;10205;49.678;6.560;2023-03-31T07:42:05;14.60;68.50
20091;DHT22;10205;49.678;6.560;2023-03-31T07:44:32;14.70;68.60
20091;DHT22;10205;49.678;6.560;2023-03-31T07:47:01;14.70;68.70
20091;DHT22;10205;49.678;6.560;2023-03-31T07:49:30;14.70;68.60
20091;DHT22;10205;49.678;6.560;2023-03-31T07:51:58;14.70;68.40
20091;DHT22;10205;49.678;6.560;2023-03-31T07:54:26;14.70;68.40
20091;DHT22;10205;49.678;6.560;2023-03-31T07:56:54;14.70;68.60
20091;DHT22;10205;49.678;6.560;2023-03-31T07:59:21;14.80;68.80
20091;DHT22;10205;49.678;6.560;2023-03-31T08:01:48;14.80;68.60
20091;DHT22;10205;49.678;6.560;2023-03-31T08:04:16;14.80;68.80
20091;DHT22;10205;49.678;6.560;2023-03-31T08:06:43;14.80;68.80
20091;DHT22;10205;49.678;6.560;2023-03-31T08:09:12;14.90;68.60
20091;DHT22;10205;49.678;6.560;2023-03-31T08:11:39;14.90;68.70
20091;DHT22;10205;49.678;6.560;2023-03-31T08:14:06;14.90;68.50
20091;DHT22;10205;49.678;6.560;2023-03-31T08:16:33;14.90;68.40
20091;DHT22;10205;49.678;6.560;2023-03-31T08:19:00;14.90;68.60
20091;DHT22;10205;49.678;6.560;2023-03-31T08:21:29;15.00;68.50
20091;DHT22;10205;49.678;6.560;2023-03-31T08:23:56;15.00;68.60
20091;DHT22;10205;49.678;6.560;2023-03-31T08:26:24;15.00;68.60
20091;DHT22;10205;49.678;6.560;2023-03-31T08:28:51;15.00;68.50
20091;DHT22;10205;49.678;6.560;2023-03-31T08:31:20;15.10;68.50
20091;DHT22;10205;49.678;6.560;2023-03-31T08:33:48;15.10;68.20
20091;DHT22;10205;49.678;6.560;2023-03-31T08:36:15;15.10;67.80
20091;DHT22;10205;49.678;6.560;2023-03-31T08:38:44;15.10;67.30
20091;DHT22;10205;49.678;6.560;2023-03-31T08:41:29;15.10;66.90
20091;DHT22;10205;49.678;6.560;2023-03-31T08:44:15;15.10;66.50
20091;DHT22;10205;49.678;6.560;2023-03-31T08:46:48;15.10;66.40
20091;DHT22;10205;49.678;6.560;2023-03-31T08:49:18;15.10;66.40
20091;DHT22;10205;49.678;6.560;2023-03-31T08:51:49;15.00;66.50
20091;DHT22;10205;49.678;6.560;2023-03-31T08:54:28;15.00;66.40
20091;DHT22;10205;49.678;6.560;2023-03-31T08:56:59;15.00;66.30
20091;DHT22;10205;49.678;6.560;2023-03-31T08:59:30;15.00;66.40
20091;DHT22;10205;49.678;6.560;2023-03-31T09:02:08;15.00;66.50
20091;DHT22;10205;49.678;6.560;2023-03-31T09:07:54;15.00;66.70
20091;DHT22;10205;49.678;6.560;2023-03-31T09:10:37;15.00;66.60
20091;DHT22;10205;49.678;6.560;2023-03-31T09:13:39;15.00;66.70
20091;DHT22;10205;49.678;6.560;2023-03-31T09:16:14;15.00;66.80
20091;DHT22;10205;49.678;6.560;2023-03-31T09:18:43;15.10;66.50
20091;DHT22;10205;49.678;6.560;2023-03-31T09:21:15;15.10;66.80
20091;DHT22;10205;49.678;6.560;2023-03-31T09:23:50;15.10;66.90
20091;DHT22;10205;49.678;6.560;2023-03-31T09:26:29;15.10;67.20
20091;DHT22;10205;49.678;6.560;2023-03-31T09:29:04;15.10;67.20
20091;DHT22;10205;49.678;6.560;2023-03-31T09:31:37;15.10;67.30
20091;DHT22;10205;49.678;6.560;2023-03-31T09:34:12;15.10;67.20
20091;DHT22;10205;49.678;6.560;2023-03-31T09:36:42;15.10;67.20
20091;DHT22;10205;49.678;6.560;2023-03-31T09:39:12;15.10;67.20
20091;DHT22;10205;49.678;6.560;2023-03-31T09:41:43;15.10;67.60
20091;DHT22;10205;49.678;6.560;2023-03-31T09:44:22;15.20;67.60
20091;DHT22;10205;49.678;6.560;2023-03-31T09:46:53;15.20;67.50
20091;DHT22;10205;49.678;6.560;2023-03-31T09:49:22;15.20;67.20
20091;DHT22;10205;49.678;6.560;2023-03-31T09:52:01;15.20;67.30
20091;DHT22;10205;49.678;6.560;2023-03-31T09:54:36;15.20;67.80
20091;DHT22;10205;49.678;6.560;2023-03-31T09:57:14;15.30;67.70
20091;DHT22;10205;49.678;6.560;2023-03-31T09:59:50;15.20;67.70
20091;DHT22;10205;49.678;6.560;2023-03-31T10:02:35;15.30;67.30
20091;DHT22;10205;49.678;6.560;2023-03-31T10:05:06;15.30;67.80
20091;DHT22;10205;49.678;6.560;2023-03-31T10:07:47;15.30;67.40
20091;DHT22;10205;49.678;6.560;2023-03-31T10:10:25;15.30;67.20
20091;DHT22;10205;49.678;6.560;2023-03-31T10:12:59;15.30;67.60
20091;DHT22;10205;49.678;6.560;2023-03-31T10:15:29;15.30;67.50
20091;DHT22;10205;49.678;6.560;2023-03-31T10:17:57;15.30;67.10
20091;DHT22;10205;49.678;6.560;2023-03-31T10:20:31;15.40;67.10
20091;DHT22;10205;49.678;6.560;2023-03-31T10:23:04;15.40;67.10
20091;DHT22;10205;49.678;6.560;2023-03-31T10:25:40;15.40;67.00
20091;DHT22;10205;49.678;6.560;2023-03-31T10:28:12;15.40;66.80
20091;DHT22;10205;49.678;6.560;2023-03-31T10:30:47;15.40;67.20
20091;DHT22;10205;49.678;6.560;2023-03-31T10:33:18;15.40;67.30
20091;DHT22;10205;49.678;6.560;2023-03-31T10:35:54;15.40;67.10
20091;DHT22;10205;49.678;6.560;2023-03-31T10:38:25;15.50;66.90
20091;DHT22;10205;49.678;6.560;2023-03-31T10:40:55;15.50;66.90
20091;DHT22;10205;49.678;6.560;2023-03-31T10:43:28;15.50;67.30
20091;DHT22;10205;49.678;6.560;2023-03-31T10:45:59;15.50;67.30
20091;DHT22;10205;49.678;6.560;2023-03-31T10:48:28;15.60;67.30
20091;DHT22;10205;49.678;6.560;2023-03-31T10:50:59;15.60;67.40
20091;DHT22;10205;49.678;6.560;2023-03-31T10:53:38;15.60;67.30
20091;DHT22;10205;49.678;6.560;2023-03-31T10:56:30;15.70;66.90
20091;DHT22;10205;49.678;6.560;2023-03-31T10:59:20;15.70;67.40
20091;DHT22;10205;49.678;6.560;2023-03-31T11:02:28;15.70;67.00
20091;DHT22;10205;49.678;6.560;2023-03-31T11:05:13;15.80;66.90
20091;DHT22;10205;49.678;6.560;2023-03-31T11:07:57;15.90;66.90
20091;DHT22;10205;49.678;6.560;2023-03-31T11:10:47;15.90;66.70
20091;DHT22;10205;49.678;6.560;2023-03-31T11:13:27;15.90;66.60
20091;DHT22;10205;49.678;6.560;2023-03-31T11:16:10;16.00;66.80
20091;DHT22;10205;49.678;6.560;2023-03-31T11:19:10;16.00;66.10
20091;DHT22;10205;49.678;6.560;2023-03-31T11:21:57;16.10;66.50
20091;DHT22;10205;49.678;6.560;2023-03-31T11:24:40;16.10;67.20
20091;DHT22;10205;49.678;6.560;2023-03-31T11:27:30;16.20;66.40
20091;DHT22;10205;49.678;6.560;2023-03-31T11:30:12;16.30;65.90
20091;DHT22;10205;49.678;6.560;2023-03-31T11:33:01;16.30;64.80
20091;DHT22;10205;49.678;6.560;2023-03-31T11:35:50;16.30;64.80
20091;DHT22;10205;49.678;6.560;2023-03-31T11:38:45;16.40;64.90
20091;DHT22;10205;49.678;6.560;2023-03-31T11:41:28;16.40;64.50
20091;DHT22;10205;49.678;6.560;2023-03-31T11:44:02;16.50;64.40
20091;DHT22;10205;49.678;6.560;2023-03-31T11:46:36;16.50;64.50
20091;DHT22;10205;49.678;6.560;2023-03-31T11:49:14;16.50;64.10
20091;DHT22;10205;49.678;6.560;2023-03-31T11:51:50;16.50;63.60
20091;DHT22;10205;49.678;6.560;2023-03-31T11:54:25;16.60;63.80
20091;DHT22;10205;49.678;6.560;2023-03-31T11:57:02;16.60;63.40
20091;DHT22;10205;49.678;6.560;2023-03-31T11:59:36;16.70;63.60
20091;DHT22;10205;49.678;6.560;2023-03-31T12:02:17;16.70;63.60
20091;DHT22;10205;49.678;6.560;2023-03-31T12:04:52;16.70;63.50
20091;DHT22;10205;49.678;6.560;2023-03-31T12:07:25;16.70;63.40
20091;DHT22;10205;49.678;6.560;2023-03-31T12:10:02;16.80;63.10
20091;DHT22;10205;49.678;6.560;2023-03-31T12:12:34;16.70;62.90
20091;DHT22;10205;49.678;6.560;2023-03-31T12:15:12;16.80;62.80
20091;DHT22;10205;49.678;6.560;2023-03-31T12:17:48;16.80;62.60
20091;DHT22;10205;49.678;6.560;2023-03-31T12:20:29;16.80;62.70
20091;DHT22;10205;49.678;6.560;2023-03-31T12:23:01;16.80;62.40
20091;DHT22;10205;49.678;6.560;2023-03-31T12:25:41;16.80;62.60
20091;DHT22;10205;49.678;6.560;2023-03-31T12:28:14;16.90;62.70
20091;DHT22;10205;49.678;6.560;2023-03-31T12:30:44;16.90;62.90
20091;DHT22;10205;49.678;6.560;2023-03-31T12:33:17;16.90;63.00
20091;DHT22;10205;49.678;6.560;2023-03-31T12:35:59;16.90;63.20
20091;DHT22;10205;49.678;6.560;2023-03-31T12:38:56;16.90;63.20
20091;DHT22;10205;49.678;6.560;2023-03-31T12:41:41;16.90;63.50
20091;DHT22;10205;49.678;6.560;2023-03-31T12:44:23;16.90;63.40
20091;DHT22;10205;49.678;6.560;2023-03-31T12:47:15;16.90;63.60
20091;DHT22;10205;49.678;6.560;2023-03-31T12:50:03;17.00;63.90
20091;DHT22;10205;49.678;6.560;2023-03-31T12:53:01;17.00;63.70
20091;DHT22;10205;49.678;6.560;2023-03-31T12:55:37;17.00;63.20
20091;DHT22;10205;49.678;6.560;2023-03-31T12:58:38;17.00;63.10
20091;DHT22;10205;49.678;6.560;2023-03-31T13:01:16;17.00;62.90
20091;DHT22;10205;49.678;6.560;2023-03-31T13:04:07;17.00;63.20
20091;DHT22;10205;49.678;6.560;2023-03-31T13:06:54;17.00;63.00
20091;DHT22;10205;49.678;6.560;2023-03-31T13:09:45;17.10;62.90
20091;DHT22;10205;49.678;6.560;2023-03-31T13:12:19;17.10;62.30
20091;DHT22;10205;49.678;6.560;2023-03-31T13:14:49;17.10;62.80
20091;DHT22;10205;49.678;6.560;2023-03-31T13:17:27;17.10;61.60
20091;DHT22;10205;49.678;6.560;2023-03-31T13:20:16;17.00;61.00
20091;DHT22;10205;49.678;6.560;2023-03-31T13:22:59;17.00;60.90
20091;DHT22;10205;49.678;6.560;2023-03-31T13:25:37;16.90;61.10
20091;DHT22;10205;49.678;6.560;2023-03-31T13:28:12;16.90;60.90
20091;DHT22;10205;49.678;6.560;2023-03-31T13:30:45;16.90;61.30
20091;DHT22;10205;49.678;6.560;2023-03-31T13:33:14;16.80;61.50
20091;DHT22;10205;49.678;6.560;2023-03-31T13:35:48;16.80;61.60
20091;DHT22;10205;49.678;6.560;2023-03-31T13:38:28;16.70;61.80
20091;DHT22;10205;49.678;6.560;2023-03-31T13:41:09;16.70;62.00
20091;DHT22;10205;49.678;6.560;2023-03-31T13:44:08;16.70;62.10
20091;DHT22;10205;49.678;6.560;2023-03-31T13:47:09;16.70;62.80
20091;DHT22;10205;49.678;6.560;2023-03-31T13:50:16;16.60;63.20
20091;DHT22;10205;49.678;6.560;2023-03-31T13:53:05;16.60;63.50
20091;DHT22;10205;49.678;6.560;2023-03-31T13:55:57;16.60;63.80
20091;DHT22;10205;49.678;6.560;2023-03-31T14:05:39;16.70;64.40
20091;DHT22;10205;49.678;6.560;2023-03-31T14:08:10;16.70;64.60
20091;DHT22;10205;49.678;6.560;2023-03-31T14:10:42;16.70;63.90
20091;DHT22;10205;49.678;6.560;2023-03-31T14:13:11;16.70;63.60
20091;DHT22;10205;49.678;6.560;2023-03-31T14:15:44;16.70;63.30
20091;DHT22;10205;49.678;6.560;2023-03-31T14:18:20;16.70;63.20
20091;DHT22;10205;49.678;6.560;2023-03-31T14:20:58;16.70;63.00
20091;DHT22;10205;49.678;6.560;2023-03-31T14:23:43;16.70;62.90
20091;DHT22;10205;49.678;6.560;2023-03-31T14:26:32;16.80;62.80
20091;DHT22;10205;49.678;6.560;2023-03-31T14:29:16;16.70;62.60
20091;DHT22;10205;49.678;6.560;2023-03-31T14:31:55;16.80;62.50
20091;DHT22;10205;49.678;6.560;2023-03-31T14:34:44;16.80;62.50
20091;DHT22;10205;49.678;6.560;2023-03-31T14:37:18;16.80;62.80
20091;DHT22;10205;49.678;6.560;2023-03-31T14:39:49;16.80;63.20
20091;DHT22;10205;49.678;6.560;2023-03-31T14:42:21;16.80;62.90
20091;DHT22;10205;49.678;6.560;2023-03-31T14:44:55;16.70;63.00
20091;DHT22;10205;49.678;6.560;2023-03-31T14:47:25;16.80;63.30
20091;DHT22;10205;49.678;6.560;2023-03-31T14:50:00;16.70;63.00
20091;DHT22;10205;49.678;6.560;2023-03-31T14:52:32;16.70;63.10
20091;DHT22;10205;49.678;6.560;2023-03-31T14:55:00;16.60;62.80
20091;DHT22;10205;49.678;6.560;2023-03-31T14:57:30;16.60;62.90
20091;DHT22;10205;49.678;6.560;2023-03-31T15:00:02;16.60;64.30
20091;DHT22;10205;49.678;6.560;2023-03-31T15:02:35;16.50;63.70
20091;DHT22;10205;49.678;6.560;2023-03-31T15:05:08;16.40;63.90
20091;DHT22;10205;49.678;6.560;2023-03-31T15:07:44;16.50;64.00
20091;DHT22;10205;49.678;6.560;2023-03-31T15:10:16;16.40;64.80
20091;DHT22;10205;49.678;6.560;2023-03-31T15:12:47;16.40;64.40
20091;DHT22;10205;49.678;6.560;2023-03-31T15:15:22;16.40;64.40
20091;DHT22;10205;49.678;6.560;2023-03-31T15:17:51;16.30;64.60
20091;DHT22;10205;49.678;6.560;2023-03-31T15:20:27;16.30;64.40
20091;DHT22;10205;49.678;6.560;2023-03-31T15:22:56;16.30;64.80
20091;DHT22;10205;49.678;6.560;2023-03-31T15:25:26;16.30;64.40
20091;DHT22;10205;49.678;6.560;2023-03-31T15:28:01;16.30;64.40
20091;DHT22;10205;49.678;6.560;2023-03-31T15:30:31;16.30;64.30
20091;DHT22;10205;49.678;6.560;2023-03-31T15:33:00;16.30;63.90
20091;DHT22;10205;49.678;6.560;2023-03-31T15:35:30;16.20;64.40
20091;DHT22;10205;49.678;6.560;2023-03-31T15:38:01;16.30;64.80
20091;DHT22;10205;49.678;6.560;2023-03-31T15:40:34;16.30;64.60
20091;DHT22;10205;49.678;6.560;2023-03-31T15:43:07;16.30;64.60
20091;DHT22;10205;49.678;6.560;2023-03-31T15:45:47;16.20;66.10
20091;DHT22;10205;49.678;6.560;2023-03-31T15:48:29;16.30;66.40
20091;DHT22;10205;49.678;6.560;2023-03-31T15:51:01;16.30;67.60
20091;DHT22;10205;49.678;6.560;2023-03-31T15:53:36;16.30;67.50
20091;DHT22;10205;49.678;6.560;2023-03-31T15:56:23;16.30;68.00
20091;DHT22;10205;49.678;6.560;2023-03-31T15:58:57;16.40;69.50
20091;DHT22;10205;49.678;6.560;2023-03-31T16:01:30;16.40;68.90
20091;DHT22;10205;49.678;6.560;2023-03-31T16:04:05;16.50;69.30
20091;DHT22;10205;49.678;6.560;2023-03-31T16:06:40;16.60;68.70
20091;DHT22;10205;49.678;6.560;2023-03-31T16:09:13;16.60;69.20
20091;DHT22;10205;49.678;6.560;2023-03-31T16:11:47;16.60;69.10
20091;DHT22;10205;49.678;6.560;2023-03-31T16:14:19;16.70;69.10
20091;DHT22;10205;49.678;6.560;2023-03-31T16:16:52;16.70;69.20
20091;DHT22;10205;49.678;6.560;2023-03-31T16:19:25;16.80;68.40
20091;DHT22;10205;49.678;6.560;2023-03-31T16:21:57;16.80;67.90
20091;DHT22;10205;49.678;6.560;2023-03-31T16:24:29;16.80;69.10
20091;DHT22;10205;49.678;6.560;2023-03-31T16:26:59;16.90;68.20
20091;DHT22;10205;49.678;6.560;2023-03-31T16:29:31;16.90;67.40
20091;DHT22;10205;49.678;6.560;2023-03-31T16:32:10;16.90;67.80
20091;DHT22;10205;49.678;6.560;2023-03-31T16:34:53;16.90;68.30
20091;DHT22;10205;49.678;6.560;2023-03-31T16:37:21;17.00;69.00
20091;DHT22;10205;49.678;6.560;2023-03-31T16:39:49;17.00;67.30
20091;DHT22;10205;49.678;6.560;2023-03-31T16:42:16;17.00;66.80